UAE4PV OMDB-LIMC
Flight info
| Callsign | UAE4PV |
|---|---|
| Flight time | N/A |
| Altitude | 32000 |
| Route | KUTLI L519 ATUDO M318 GOLGU M550 RIBOT DCT MIGMA DCT MEVDO DCT ITRUX Y511 PMA Z712 WEJ L677 CVO L617 TANSA UL613 KOR DCT DIMIS DCT VAKSU DCT SPL DCT ZDA DCT PUL DCT LABIN DCT BASOG DCT VIC/N0424F180 L615 PEXUG |
| Aircraft | B77W/H-SDE2E3GHIJ1J3J4J5M1P2RWXYZ/LB1D1 |
Departure
| Time | N/A |
|---|---|
| Airport | Dubai International Airport (OMDB) |
Arrival
| Time | 2026-05-06 18:22 |
|---|---|
| Airport | Milan Malpensa International Airport (LIMC) |
| Time | Latitude | Longitude | Altitude | Speed | Heading |
|---|---|---|---|---|---|
| 2026-05-06 18:07 | 45.65035 | 9.80963 | 33887 ft | 359 kts | 264° |
| 2026-05-06 18:07 | 45.65109 | 9.77396 | 33558 ft | 360 kts | 263° |
| 2026-05-06 18:07 | 45.65163 | 9.73823 | 33034 ft | 359 kts | 263° |
| 2026-05-06 18:08 | 45.65210 | 9.70268 | 32515 ft | 358 kts | 263° |
| 2026-05-06 18:08 | 45.65250 | 9.66632 | 31266 ft | 374 kts | 263° |
| 2026-05-06 18:08 | 45.65288 | 9.62827 | 29752 ft | 397 kts | 263° |
| 2026-05-06 18:08 | 45.65307 | 9.58779 | 27923 ft | 419 kts | 264° |
| 2026-05-06 18:09 | 45.65310 | 9.54530 | 26750 ft | 431 kts | 264° |
| 2026-05-06 18:09 | 45.65316 | 9.50224 | 25751 ft | 434 kts | 265° |
| 2026-05-06 18:09 | 45.65324 | 9.45910 | 24857 ft | 435 kts | 265° |
| 2026-05-06 18:09 | 45.65331 | 9.41598 | 24121 ft | 433 kts | 266° |
| 2026-05-06 18:10 | 45.65333 | 9.37285 | 22906 ft | 436 kts | 266° |
| 2026-05-06 18:10 | 45.65336 | 9.32945 | 22003 ft | 436 kts | 267° |
| 2026-05-06 18:10 | 45.65357 | 9.28639 | 21388 ft | 430 kts | 267° |
| 2026-05-06 18:10 | 45.65384 | 9.24402 | 20798 ft | 423 kts | 267° |
| 2026-05-06 18:11 | 45.65409 | 9.20221 | 20149 ft | 419 kts | 267° |
| 2026-05-06 18:11 | 45.65429 | 9.16075 | 19476 ft | 416 kts | 267° |
| 2026-05-06 18:11 | 45.65445 | 9.11947 | 18816 ft | 413 kts | 267° |
| 2026-05-06 18:11 | 45.65459 | 9.07863 | 18196 ft | 410 kts | 267° |
| 2026-05-06 18:12 | 45.65472 | 9.03808 | 17455 ft | 405 kts | 267° |
| 2026-05-06 18:12 | 45.65453 | 8.99920 | 16621 ft | 377 kts | 263° |
| 2026-05-06 18:12 | 45.64891 | 8.96416 | 15818 ft | 351 kts | 244° |
| 2026-05-06 18:12 | 45.63791 | 8.93429 | 15080 ft | 331 kts | 235° |
| 2026-05-06 18:13 | 45.62261 | 8.91133 | 14312 ft | 316 kts | 214° |
| 2026-05-06 18:13 | 45.60331 | 8.89758 | 13595 ft | 305 kts | 200° |
| 2026-05-06 18:13 | 45.58304 | 8.89025 | 12791 ft | 298 kts | 190° |
| 2026-05-06 18:13 | 45.56258 | 8.89075 | 11989 ft | 294 kts | 172° |
| 2026-05-06 18:14 | 45.54278 | 8.89678 | 11252 ft | 287 kts | 171° |
| 2026-05-06 18:14 | 45.52335 | 8.90236 | 10498 ft | 283 kts | 171° |
| 2026-05-06 18:14 | 45.50418 | 8.90766 | 9748 ft | 279 kts | 172° |
| 2026-05-06 18:14 | 45.48530 | 8.91286 | 8961 ft | 276 kts | 171° |
| 2026-05-06 18:15 | 45.46658 | 8.91798 | 8194 ft | 272 kts | 171° |
| 2026-05-06 18:15 | 45.44806 | 8.92303 | 7437 ft | 270 kts | 171° |
| 2026-05-06 18:15 | 45.42973 | 8.92801 | 6729 ft | 266 kts | 171° |
| 2026-05-06 18:15 | 45.41785 | 8.92987 | 6526 ft | 253 kts | 183° |
| 2026-05-06 18:16 | 45.39717 | 8.91835 | 5980 ft | 234 kts | 221° |
| 2026-05-06 18:16 | 45.38655 | 8.90119 | 5752 ft | 231 kts | 233° |
| 2026-05-06 18:16 | 45.37980 | 8.88070 | 5522 ft | 226 kts | 252° |
| 2026-05-06 18:16 | 45.37663 | 8.85917 | 5333 ft | 221 kts | 256° |
| 2026-05-06 18:17 | 45.37408 | 8.83777 | 5078 ft | 217 kts | 262° |
| 2026-05-06 18:17 | 45.37667 | 8.81728 | 4857 ft | 216 kts | 294° |
| 2026-05-06 18:17 | 45.38633 | 8.80136 | 4661 ft | 213 kts | 321° |
| 2026-05-06 18:17 | 45.40011 | 8.79335 | 4418 ft | 219 kts | 353° |
| 2026-05-06 18:18 | 45.41526 | 8.79172 | 4245 ft | 219 kts | 352° |
| 2026-05-06 18:18 | 45.43032 | 8.78846 | 4101 ft | 217 kts | 348° |
| 2026-05-06 18:18 | 45.44495 | 8.78453 | 4001 ft | 210 kts | 348° |
| 2026-05-06 18:18 | 45.45924 | 8.78060 | 3833 ft | 211 kts | 348° |
| 2026-05-06 18:19 | 45.47375 | 8.77660 | 3553 ft | 212 kts | 348° |
| 2026-05-06 18:19 | 45.48809 | 8.77266 | 3297 ft | 206 kts | 348° |
| 2026-05-06 18:19 | 45.50206 | 8.76882 | 3000 ft | 202 kts | 348° |
| 2026-05-06 18:19 | 45.51570 | 8.76507 | 2716 ft | 196 kts | 349° |
| 2026-05-06 18:20 | 45.52868 | 8.76149 | 2455 ft | 185 kts | 349° |
| 2026-05-06 18:20 | 45.54085 | 8.75813 | 2237 ft | 171 kts | 349° |
| 2026-05-06 18:20 | 45.55240 | 8.75495 | 2002 ft | 168 kts | 350° |
| 2026-05-06 18:20 | 45.56347 | 8.75190 | 1787 ft | 155 kts | 350° |
| 2026-05-06 18:21 | 45.57382 | 8.74905 | 1609 ft | 151 kts | 350° |
| 2026-05-06 18:21 | 45.58405 | 8.74622 | 1403 ft | 148 kts | 351° |
| 2026-05-06 18:21 | 45.59405 | 8.74346 | 1204 ft | 145 kts | 351° |
| 2026-05-06 18:21 | 45.60388 | 8.74072 | 1004 ft | 143 kts | 350° |
| 2026-05-06 18:22 | 45.61381 | 8.73801 | 816 ft | 146 kts | 349° |
| 2026-05-06 18:22 | 45.62346 | 8.73537 | 748 ft | 129 kts | 349° |
| 2026-05-06 18:22 | 45.63076 | 8.73338 | 741 ft | 81 kts | 347° |
| 2026-05-06 18:22 | 45.63445 | 8.73233 | 743 ft | 27 kts | 349° |
| 2026-05-06 18:23 | 45.63605 | 8.73170 | 743 ft | 24 kts | 335° |
| 2026-05-06 18:23 | 45.63742 | 8.73038 | 744 ft | 24 kts | 318° |
| 2026-05-06 18:23 | 45.63844 | 8.72852 | 743 ft | 24 kts | 304° |
| 2026-05-06 18:23 | 45.63924 | 8.72669 | 744 ft | 15 kts | 282° |
| 2026-05-06 18:24 | 45.63856 | 8.72595 | 742 ft | 14 kts | 177° |
| 2026-05-06 18:24 | 45.63758 | 8.72620 | 742 ft | 14 kts | 169° |
| 2026-05-06 18:24 | 45.63661 | 8.72646 | 742 ft | 14 kts | 169° |
| 2026-05-06 18:24 | 45.63564 | 8.72673 | 742 ft | 14 kts | 169° |
| 2026-05-06 18:25 | 45.63470 | 8.72699 | 743 ft | 13 kts | 169° |
| 2026-05-06 18:25 | 45.63407 | 8.72635 | 743 ft | 13 kts | 255° |
| 2026-05-06 18:25 | 45.63389 | 8.72510 | 742 ft | 13 kts | 259° |
| 2026-05-06 18:25 | 45.63372 | 8.72386 | 742 ft | 13 kts | 259° |
| 2026-05-06 18:26 | 45.63356 | 8.72261 | 744 ft | 13 kts | 259° |
| 2026-05-06 18:26 | 45.63339 | 8.72136 | 746 ft | 13 kts | 259° |
| 2026-05-06 18:26 | 45.63322 | 8.72012 | 745 ft | 13 kts | 259° |
| 2026-05-06 18:26 | 45.63305 | 8.71887 | 745 ft | 13 kts | 259° |
| 2026-05-06 18:27 | 45.63289 | 8.71763 | 743 ft | 13 kts | 259° |
| 2026-05-06 18:27 | 45.63265 | 8.71679 | 741 ft | 6 kts | 216° |
| 2026-05-06 18:27 | 45.63232 | 8.71672 | 742 ft | 5 kts | 174° |
| 2026-05-06 18:27 | 45.63204 | 8.71653 | 742 ft | 4 kts | 226° |
| 2026-05-06 18:28 | 45.63193 | 8.71611 | 743 ft | 5 kts | 256° |
| 2026-05-06 18:28 | 45.63188 | 8.71574 | 742 ft | 2 kts | 258° |
| 2026-05-06 18:28 | 45.63187 | 8.71566 | 742 ft | 0 kts | 258° |